createdAt,value
2019-05-09T00:00:43.900Z,11.20
2019-05-09T00:03:13.834Z,11.20
2019-05-09T00:05:44.158Z,11.20
2019-05-09T00:08:13.909Z,11.20
2019-05-09T00:10:44.890Z,11.20
2019-05-09T00:13:13.930Z,11.20
2019-05-09T00:15:43.690Z,11.10
2019-05-09T00:18:14.244Z,11.10
2019-05-09T00:20:45.110Z,11.10
2019-05-09T00:23:14.044Z,11.10
2019-05-09T00:25:43.407Z,11.10
2019-05-09T00:28:13.452Z,11.10
2019-05-09T00:30:59.685Z,11.10
2019-05-09T00:33:30.278Z,11.10
2019-05-09T00:35:59.240Z,11.10
2019-05-09T00:38:33.339Z,11.10
2019-05-09T00:41:03.862Z,11.10
2019-05-09T00:43:34.238Z,11.10
2019-05-09T00:46:05.021Z,11.10
2019-05-09T00:48:38.381Z,11.10
2019-05-09T00:51:07.414Z,11.10
2019-05-09T00:53:36.341Z,11.10
2019-05-09T00:56:05.289Z,11.00
2019-05-09T00:58:34.251Z,11.00
2019-05-09T01:01:04.413Z,11.00
2019-05-09T01:03:34.063Z,11.00
2019-05-09T01:06:04.197Z,11.00
2019-05-09T01:08:33.773Z,11.00
2019-05-09T01:11:11.423Z,11.00
2019-05-09T01:13:34.289Z,11.00
2019-05-09T01:16:04.551Z,11.00
2019-05-09T01:18:34.878Z,11.00
2019-05-09T01:21:04.246Z,11.00
2019-05-09T01:23:34.369Z,10.90
2019-05-09T01:26:04.063Z,10.90
2019-05-09T01:28:33.837Z,10.90
2019-05-09T01:31:04.137Z,10.90
2019-05-09T01:33:44.347Z,10.80
2019-05-09T01:36:14.390Z,10.80
2019-05-09T01:38:43.546Z,10.80
2019-05-09T01:41:24.695Z,10.80
2019-05-09T01:43:44.316Z,10.80
2019-05-09T01:46:14.503Z,10.80
2019-05-09T01:48:43.723Z,10.80
2019-05-09T01:51:13.880Z,10.70
2019-05-09T01:53:47.692Z,10.70
2019-05-09T01:56:16.630Z,10.70
2019-05-09T01:58:45.579Z,10.70
2019-05-09T02:01:14.758Z,10.70
2019-05-09T02:03:44.425Z,10.80
2019-05-09T02:06:13.776Z,10.80
2019-05-09T02:08:43.764Z,10.80
2019-05-09T02:11:13.416Z,10.80
2019-05-09T02:13:44.229Z,10.80
2019-05-09T02:16:14.757Z,10.80
2019-05-09T02:18:45.318Z,10.70
2019-05-09T02:21:14.667Z,10.70
2019-05-09T02:23:43.671Z,10.70
2019-05-09T02:26:13.629Z,10.70
2019-05-09T02:28:43.388Z,10.70
2019-05-09T02:31:15.707Z,10.60
2019-05-09T02:33:45.608Z,10.60
2019-05-09T02:36:13.942Z,10.60
2019-05-09T02:38:42.926Z,10.50
2019-05-09T02:41:11.871Z,10.50
2019-05-09T02:43:40.795Z,10.50
2019-05-09T02:46:18.882Z,10.50
2019-05-09T02:48:49.533Z,10.40
2019-05-09T02:51:18.902Z,10.40
2019-05-09T02:53:48.691Z,10.40
2019-05-09T02:56:18.885Z,10.30
2019-05-09T02:58:49.947Z,10.30
2019-05-09T03:01:20.538Z,10.30
2019-05-09T03:03:49.607Z,10.30
2019-05-09T03:06:19.564Z,10.30
2019-05-09T03:08:49.363Z,10.30
2019-05-09T03:11:18.908Z,10.30
2019-05-09T03:13:49.611Z,10.30
2019-05-09T03:16:19.260Z,10.30
2019-05-09T03:18:49.394Z,10.20
2019-05-09T03:21:20.377Z,10.20
2019-05-09T03:23:49.430Z,10.20
2019-05-09T03:26:20.037Z,10.20
2019-05-09T03:29:02.395Z,10.20
2019-05-09T03:31:32.987Z,10.20
2019-05-09T03:34:01.932Z,10.20
2019-05-09T03:36:30.995Z,10.20
2019-05-09T03:38:59.913Z,10.20
2019-05-09T03:41:28.935Z,10.20
2019-05-09T03:43:58.574Z,10.20
2019-05-09T03:46:37.811Z,10.20
2019-05-09T03:49:07.987Z,10.10
2019-05-09T03:51:37.893Z,10.20
2019-05-09T03:54:08.125Z,10.20
2019-05-09T03:56:38.910Z,10.20
2019-05-09T03:59:08.412Z,10.20
2019-05-09T04:01:38.165Z,10.20
2019-05-09T04:04:08.770Z,10.20
2019-05-09T04:06:39.088Z,10.20
2019-05-09T04:09:08.906Z,10.20
2019-05-09T04:11:38.184Z,10.20
2019-05-09T04:14:11.397Z,10.20
2019-05-09T04:16:40.329Z,10.20
2019-05-09T04:19:09.475Z,10.10
2019-05-09T04:21:38.459Z,10.10
2019-05-09T04:24:08.467Z,10.10
2019-05-09T04:26:48.488Z,10.00
2019-05-09T04:29:18.338Z,10.10
2019-05-09T04:31:48.372Z,10.10
2019-05-09T04:34:18.258Z,10.10
2019-05-09T04:36:48.365Z,10.20
2019-05-09T04:39:21.689Z,10.10
2019-05-09T04:41:48.835Z,10.10
2019-05-09T04:44:22.372Z,10.10
2019-05-09T04:46:54.142Z,10.10
2019-05-09T04:49:22.146Z,10.10
2019-05-09T04:51:51.069Z,10.20
2019-05-09T04:54:20.051Z,10.30
2019-05-09T04:56:49.022Z,10.40
2019-05-09T04:59:18.163Z,10.40
2019-05-09T05:01:51.601Z,10.40
2019-05-09T05:04:22.530Z,10.40
2019-05-09T05:06:51.456Z,10.30
2019-05-09T05:09:21.426Z,10.30
2019-05-09T05:11:50.640Z,10.40
2019-05-09T05:14:22.546Z,10.40
2019-05-09T05:16:53.898Z,10.50
2019-05-09T05:19:24.221Z,10.50
2019-05-09T05:21:54.038Z,10.60
2019-05-09T05:24:27.829Z,10.60
2019-05-09T05:26:57.896Z,10.60
2019-05-09T05:29:28.194Z,10.60
2019-05-09T05:31:59.167Z,10.70
2019-05-09T05:34:29.747Z,10.70
2019-05-09T05:36:58.711Z,10.70
2019-05-09T05:39:28.339Z,10.80
2019-05-09T05:41:58.511Z,10.90
2019-05-09T05:44:28.304Z,10.90
2019-05-09T05:47:19.767Z,11.00
2019-05-09T05:49:48.882Z,11.00
2019-05-09T05:52:18.504Z,11.10
2019-05-09T05:54:47.752Z,11.20
2019-05-09T05:57:17.664Z,11.30
2019-05-09T05:59:48.254Z,11.40
2019-05-09T06:02:17.905Z,11.50
2019-05-09T06:04:48.623Z,11.50
2019-05-09T06:07:18.517Z,11.60
2019-05-09T06:09:48.218Z,11.60
2019-05-09T06:12:18.509Z,11.70
2019-05-09T06:14:48.143Z,11.90
2019-05-09T06:17:18.087Z,11.90
2019-05-09T06:19:48.209Z,12.00
2019-05-09T06:22:18.266Z,12.10
2019-05-09T06:24:47.962Z,12.20
2019-05-09T06:27:18.257Z,12.20
2019-05-09T06:29:47.762Z,12.30
2019-05-09T06:32:18.822Z,12.30
2019-05-09T06:34:47.852Z,12.40
2019-05-09T06:37:18.375Z,12.50
2019-05-09T06:39:48.623Z,12.60
2019-05-09T06:42:18.286Z,12.80
2019-05-09T06:44:49.071Z,13.00
2019-05-09T06:47:19.670Z,13.30
2019-05-09T06:49:57.429Z,13.40
2019-05-09T06:52:28.234Z,13.50
2019-05-09T06:54:58.220Z,13.50
2019-05-09T06:57:28.106Z,13.50
2019-05-09T06:59:58.088Z,13.40
2019-05-09T07:02:28.818Z,13.20
2019-05-09T07:04:59.406Z,13.00
2019-05-09T07:07:32.815Z,12.90
2019-05-09T07:10:03.367Z,12.80
2019-05-09T07:12:32.318Z,12.80
2019-05-09T07:15:04.464Z,12.80
2019-05-09T07:17:33.479Z,12.80
2019-05-09T07:20:02.527Z,12.80
2019-05-09T07:22:39.000Z,12.80
2019-05-09T07:25:11.064Z,12.80
2019-05-09T07:27:40.790Z,12.90
2019-05-09T07:30:29.172Z,12.90
2019-05-09T07:33:08.431Z,12.90
2019-05-09T07:35:38.206Z,13.00
2019-05-09T07:38:08.564Z,13.00
2019-05-09T07:40:38.599Z,13.00
2019-05-09T07:43:07.952Z,13.10
2019-05-09T07:45:38.424Z,13.10
2019-05-09T07:48:07.807Z,13.30
2019-05-09T07:50:38.958Z,13.50
2019-05-09T07:53:08.791Z,13.70
2019-05-09T07:55:38.065Z,13.80
2019-05-09T07:58:08.078Z,13.90
2019-05-09T08:00:38.434Z,13.80
2019-05-09T08:03:10.539Z,13.90
2019-05-09T08:05:38.679Z,13.90
2019-05-09T08:08:10.871Z,13.90
2019-05-09T08:10:39.893Z,14.00
2019-05-09T08:13:11.801Z,14.10
2019-05-09T08:15:39.517Z,14.10
2019-05-09T08:18:08.781Z,14.20
2019-05-09T08:20:40.489Z,14.20
2019-05-09T08:23:08.858Z,14.30
2019-05-09T08:25:38.390Z,14.30
2019-05-09T08:28:09.082Z,14.50
2019-05-09T08:30:40.269Z,14.50
2019-05-09T08:33:08.910Z,14.50
2019-05-09T08:35:38.432Z,14.50
2019-05-09T08:38:08.580Z,14.50
2019-05-09T08:40:38.346Z,14.50
2019-05-09T08:43:07.747Z,14.40
2019-05-09T08:45:38.335Z,14.50
2019-05-09T08:48:09.460Z,14.40
2019-05-09T08:50:42.561Z,14.30
2019-05-09T08:53:11.551Z,14.30
2019-05-09T08:55:40.495Z,14.50
2019-05-09T08:58:09.438Z,14.60
2019-05-09T09:00:39.202Z,14.60
2019-05-09T09:03:08.288Z,14.70
2019-05-09T09:05:38.074Z,14.80
2019-05-09T09:08:08.249Z,14.90
2019-05-09T09:10:38.494Z,14.90
2019-05-09T09:13:08.954Z,14.90
2019-05-09T09:15:58.058Z,15.00
2019-05-09T09:18:08.979Z,15.10
2019-05-09T09:20:38.370Z,15.10
2019-05-09T09:23:08.837Z,15.10
2019-05-09T09:25:38.987Z,15.20
2019-05-09T09:28:08.890Z,15.30
2019-05-09T09:30:38.943Z,15.30
2019-05-09T09:33:11.392Z,15.30
2019-05-09T09:35:38.828Z,15.40
2019-05-09T09:38:09.440Z,15.50
2019-05-09T09:40:38.722Z,15.70
2019-05-09T09:43:09.150Z,15.80
2019-05-09T09:45:38.508Z,15.90
2019-05-09T09:48:08.945Z,15.90
2019-05-09T09:50:38.536Z,16.00
2019-05-09T09:53:08.739Z,16.10
2019-05-09T09:55:38.679Z,16.30
2019-05-09T09:58:09.073Z,16.40
2019-05-09T10:00:47.643Z,16.50
2019-05-09T10:03:18.419Z,16.60
2019-05-09T10:05:48.631Z,16.80
2019-05-09T10:08:18.103Z,16.80
2019-05-09T10:10:48.409Z,16.80
2019-05-09T10:13:18.506Z,16.70
2019-05-09T10:15:52.126Z,16.80
2019-05-09T10:18:22.718Z,16.80
2019-05-09T10:20:53.290Z,17.00
2019-05-09T10:23:22.246Z,16.90
2019-05-09T10:25:51.243Z,16.80
2019-05-09T10:28:21.676Z,16.90
2019-05-09T10:30:50.890Z,17.10
2019-05-09T10:33:20.096Z,17.20
2019-05-09T10:35:49.144Z,17.30
2019-05-09T10:38:18.565Z,17.50
2019-05-09T10:40:48.601Z,17.50
2019-05-09T10:43:34.511Z,17.50
2019-05-09T10:46:19.394Z,17.60
2019-05-09T10:48:50.303Z,17.50
2019-05-09T10:51:19.223Z,17.30
2019-05-09T10:53:48.360Z,17.20
2019-05-09T10:56:18.733Z,17.10
2019-05-09T10:58:48.451Z,17.10
2019-05-09T11:01:18.483Z,17.10
2019-05-09T11:03:48.425Z,17.00
2019-05-09T11:06:18.375Z,16.90
2019-05-09T11:08:48.022Z,16.80
2019-05-09T11:11:18.142Z,16.60
2019-05-09T11:13:48.379Z,16.60
2019-05-09T11:16:18.413Z,16.70
2019-05-09T11:18:48.447Z,17.10
2019-05-09T11:21:19.151Z,17.40
2019-05-09T11:23:49.049Z,17.80
2019-05-09T11:26:18.417Z,18.10
2019-05-09T11:28:47.598Z,18.20
2019-05-09T11:31:18.383Z,18.20
2019-05-09T11:33:48.458Z,18.10
2019-05-09T11:36:21.149Z,17.90
2019-05-09T11:38:49.549Z,17.60
2019-05-09T11:41:19.583Z,17.60
2019-05-09T11:43:48.922Z,17.70
2019-05-09T11:46:18.479Z,17.80
2019-05-09T11:48:47.639Z,17.80
2019-05-09T11:51:20.432Z,17.80
2019-05-09T11:53:48.661Z,17.90
2019-05-09T11:56:18.321Z,18.00
2019-05-09T11:58:48.263Z,18.10
2019-05-09T12:01:18.975Z,17.90
2019-05-09T12:03:52.116Z,17.80
2019-05-09T12:06:20.228Z,17.80
2019-05-09T12:08:49.569Z,17.80
2019-05-09T12:11:18.796Z,17.90
2019-05-09T12:13:48.768Z,17.90
2019-05-09T12:16:18.718Z,17.80
2019-05-09T12:18:48.816Z,18.00
2019-05-09T12:21:19.059Z,18.20
2019-05-09T12:23:49.119Z,18.20
2019-05-09T12:26:18.758Z,18.10
2019-05-09T12:28:48.565Z,18.10
2019-05-09T12:31:18.100Z,18.20
2019-05-09T12:33:48.387Z,18.20
2019-05-09T12:36:19.372Z,18.10
2019-05-09T12:38:49.823Z,18.10
2019-05-09T12:41:19.433Z,17.90
2019-05-09T12:43:48.538Z,17.80
2019-05-09T12:46:17.561Z,17.70
2019-05-09T12:48:48.159Z,17.60
2019-05-09T12:51:18.380Z,17.50
2019-05-09T12:53:48.694Z,17.50
2019-05-09T12:56:18.721Z,17.60
2019-05-09T12:58:48.040Z,17.80
2019-05-09T13:01:18.708Z,17.90
2019-05-09T13:03:48.474Z,18.10
2019-05-09T13:06:20.139Z,18.10
2019-05-09T13:08:48.334Z,18.10
2019-05-09T13:11:18.781Z,18.10
2019-05-09T13:13:48.152Z,17.90
2019-05-09T13:16:44.074Z,17.70
2019-05-09T13:19:03.243Z,17.60
2019-05-09T13:21:33.065Z,17.50
2019-05-09T13:24:02.463Z,17.40
2019-05-09T13:26:31.661Z,17.40
2019-05-09T13:29:00.695Z,17.40
2019-05-09T13:31:29.799Z,17.40
2019-05-09T13:33:58.915Z,17.50
2019-05-09T13:36:28.690Z,17.80
2019-05-09T13:39:04.416Z,18.00
2019-05-09T13:41:28.534Z,18.10
2019-05-09T13:44:03.803Z,18.10
2019-05-09T13:46:28.485Z,18.20
2019-05-09T13:49:10.778Z,18.10
2019-05-09T13:51:28.249Z,18.00
2019-05-09T13:53:59.280Z,17.90
2019-05-09T13:56:28.112Z,17.70
2019-05-09T13:58:58.210Z,17.70
2019-05-09T14:01:27.624Z,17.70
2019-05-09T14:03:57.674Z,17.60
2019-05-09T14:06:27.794Z,17.50
2019-05-09T14:08:59.460Z,17.50
2019-05-09T14:11:29.098Z,17.50
2019-05-09T14:13:58.460Z,17.60
2019-05-09T14:16:28.769Z,17.50
2019-05-09T14:19:00.602Z,17.50
2019-05-09T14:21:29.760Z,17.50
2019-05-09T14:24:10.720Z,17.50
2019-05-09T14:26:29.695Z,17.40
2019-05-09T14:28:58.638Z,17.40
2019-05-09T14:31:31.775Z,17.40
2019-05-09T14:33:58.214Z,17.50
2019-05-09T14:36:27.711Z,17.50
2019-05-09T14:38:57.990Z,17.40
2019-05-09T14:41:27.884Z,17.40
2019-05-09T14:43:59.673Z,17.50
2019-05-09T14:46:28.496Z,17.50
2019-05-09T14:48:58.430Z,17.60
2019-05-09T14:51:28.482Z,17.70
2019-05-09T14:53:59.482Z,17.60
2019-05-09T14:56:28.322Z,17.50
2019-05-09T14:58:58.056Z,17.50
2019-05-09T15:01:28.684Z,17.50
2019-05-09T15:03:58.733Z,17.50
2019-05-09T15:06:28.353Z,17.40
2019-05-09T15:08:58.143Z,17.30
2019-05-09T15:11:28.213Z,17.20
2019-05-09T15:13:58.431Z,17.20
2019-05-09T15:16:28.405Z,17.20
2019-05-09T15:18:58.359Z,17.10
2019-05-09T15:21:27.689Z,17.10
2019-05-09T15:23:58.914Z,17.10
2019-05-09T15:26:27.720Z,17.20
2019-05-09T15:28:57.875Z,17.10
2019-05-09T15:31:28.688Z,17.10
2019-05-09T15:33:57.855Z,17.10
2019-05-09T15:36:26.892Z,17.10
2019-05-09T15:38:55.857Z,17.10
2019-05-09T15:41:24.774Z,17.10
2019-05-09T15:43:53.762Z,17.10
2019-05-09T15:46:24.334Z,17.10
2019-05-09T15:48:53.297Z,17.20
2019-05-09T15:51:22.207Z,17.20
2019-05-09T15:53:51.150Z,17.20
2019-05-09T15:56:20.110Z,17.20
2019-05-09T15:58:49.239Z,17.10
2019-05-09T16:01:18.562Z,17.00
2019-05-09T16:03:48.613Z,17.00
2019-05-09T16:06:19.651Z,16.90
2019-05-09T16:08:48.471Z,16.80
2019-05-09T16:11:18.097Z,16.80
2019-05-09T16:13:47.971Z,16.60
2019-05-09T16:16:17.747Z,16.50
2019-05-09T16:18:48.618Z,16.50
2019-05-09T16:21:17.685Z,16.40
2019-05-09T16:23:48.632Z,16.30
2019-05-09T16:26:18.130Z,16.30
2019-05-09T16:28:48.792Z,16.20
2019-05-09T16:31:18.053Z,16.20
2019-05-09T16:33:47.717Z,16.20
2019-05-09T16:36:17.526Z,16.10
2019-05-09T16:38:48.976Z,16.10
2019-05-09T16:41:18.537Z,16.20
2019-05-09T16:43:48.021Z,16.20
2019-05-09T16:46:18.165Z,16.20
2019-05-09T16:48:47.614Z,16.20
2019-05-09T16:51:18.233Z,16.20
2019-05-09T16:53:49.884Z,16.20
2019-05-09T16:56:18.279Z,16.20
2019-05-09T16:58:47.262Z,16.20
2019-05-09T17:01:18.572Z,16.30
2019-05-09T17:03:47.479Z,16.30
2019-05-09T17:06:18.433Z,16.30
2019-05-09T17:08:47.620Z,16.20
2019-05-09T17:11:19.250Z,16.20
2019-05-09T17:13:47.908Z,16.20
2019-05-09T17:16:17.776Z,16.20
2019-05-09T17:18:48.610Z,16.20
2019-05-09T17:21:37.602Z,16.20
2019-05-09T17:24:08.273Z,16.10
2019-05-09T17:26:37.886Z,16.10
2019-05-09T17:29:07.130Z,16.10
2019-05-09T17:31:38.183Z,16.10
2019-05-09T17:34:06.854Z,16.20
2019-05-09T17:36:38.300Z,16.20
2019-05-09T17:39:07.970Z,16.30
2019-05-09T17:41:37.966Z,16.40
2019-05-09T17:44:07.672Z,16.50
2019-05-09T17:46:38.580Z,16.60
2019-05-09T17:49:08.362Z,16.60
2019-05-09T17:51:37.590Z,16.50
2019-05-09T17:54:08.071Z,16.40
2019-05-09T17:56:37.920Z,16.30
2019-05-09T17:59:08.552Z,16.10
2019-05-09T18:01:37.890Z,16.00
2019-05-09T18:04:09.129Z,15.90
2019-05-09T18:06:38.174Z,15.90
2019-05-09T18:09:08.588Z,15.80
2019-05-09T18:11:37.960Z,15.80
2019-05-09T18:14:08.103Z,15.80
2019-05-09T18:16:38.956Z,15.70
2019-05-09T18:19:08.926Z,15.70
2019-05-09T18:21:50.331Z,15.70
2019-05-09T18:24:08.969Z,15.70
2019-05-09T18:26:38.284Z,15.60
2019-05-09T18:29:07.663Z,15.50
2019-05-09T18:31:53.254Z,15.40
2019-05-09T18:34:22.444Z,15.30
2019-05-09T18:36:51.458Z,15.20
2019-05-09T18:39:21.296Z,15.10
2019-05-09T18:41:50.237Z,15.10
2019-05-09T18:44:19.258Z,15.10
2019-05-09T18:46:48.370Z,15.00
2019-05-09T18:49:17.546Z,15.00
2019-05-09T18:51:46.499Z,14.90
2019-05-09T18:54:15.539Z,14.90
2019-05-09T18:56:44.475Z,14.80
2019-05-09T18:59:13.443Z,14.80
2019-05-09T19:01:42.513Z,14.70
2019-05-09T19:04:11.508Z,14.60
2019-05-09T19:06:40.518Z,14.60
2019-05-09T19:09:09.445Z,14.50
2019-05-09T19:11:38.566Z,14.40
2019-05-09T19:14:09.402Z,14.30
2019-05-09T19:16:40.218Z,14.30
2019-05-09T19:19:13.616Z,14.20
2019-05-09T19:21:47.151Z,14.10
2019-05-09T19:24:16.082Z,14.10
2019-05-09T19:26:45.065Z,14.00
2019-05-09T19:29:13.984Z,14.00
2019-05-09T19:31:42.954Z,13.90
2019-05-09T19:34:11.957Z,13.90
2019-05-09T19:36:41.002Z,13.90
2019-05-09T19:39:10.555Z,13.90
2019-05-09T19:41:39.697Z,13.90
2019-05-09T19:44:08.718Z,13.90
2019-05-09T19:46:37.839Z,13.90
2019-05-09T19:49:07.212Z,13.80
2019-05-09T19:51:36.325Z,13.80
2019-05-09T19:54:05.494Z,13.80
2019-05-09T19:56:34.510Z,13.80
2019-05-09T19:59:07.035Z,13.80
2019-05-09T20:01:34.467Z,13.80
2019-05-09T20:04:03.482Z,13.80
2019-05-09T20:06:32.435Z,13.70
2019-05-09T20:09:01.798Z,13.70
2019-05-09T20:11:48.977Z,13.70
2019-05-09T20:14:19.818Z,13.70
2019-05-09T20:16:56.376Z,13.70
2019-05-09T20:19:25.885Z,13.70
2019-05-09T20:21:55.313Z,13.60
2019-05-09T20:24:24.820Z,13.60
2019-05-09T20:26:54.426Z,13.50
2019-05-09T20:29:23.725Z,13.40
2019-05-09T20:31:52.743Z,13.30
2019-05-09T20:34:21.779Z,13.20
2019-05-09T20:36:50.787Z,13.20
2019-05-09T20:39:19.954Z,13.20
2019-05-09T20:41:49.164Z,13.10
2019-05-09T20:44:19.599Z,13.10
2019-05-09T20:46:48.883Z,13.00
2019-05-09T20:49:18.011Z,12.90
2019-05-09T20:51:47.124Z,12.80
2019-05-09T20:54:20.890Z,12.70
2019-05-09T20:56:47.143Z,12.60
2019-05-09T20:59:16.282Z,12.50
2019-05-09T21:01:45.410Z,12.50
2019-05-09T21:04:14.637Z,12.50
2019-05-09T21:06:43.748Z,12.50
2019-05-09T21:09:12.887Z,12.50
2019-05-09T21:11:41.993Z,12.50
2019-05-09T21:14:11.251Z,12.50
2019-05-09T21:16:40.371Z,12.50
2019-05-09T21:19:09.677Z,12.60
2019-05-09T21:21:38.919Z,12.50
2019-05-09T21:24:08.191Z,12.60
2019-05-09T21:26:37.333Z,12.60
2019-05-09T21:29:06.551Z,12.60
2019-05-09T21:31:35.735Z,12.60
2019-05-09T21:34:04.896Z,12.70
2019-05-09T21:36:33.935Z,12.70
2019-05-09T21:39:04.343Z,12.70
2019-05-09T21:41:33.385Z,12.70
2019-05-09T21:44:02.461Z,12.60
2019-05-09T21:46:31.414Z,12.60
2019-05-09T21:49:00.346Z,12.60
2019-05-09T21:51:29.286Z,12.60
2019-05-09T21:53:58.216Z,12.60
2019-05-09T21:56:27.310Z,12.60
2019-05-09T21:58:56.246Z,12.60
2019-05-09T22:01:25.811Z,12.60
2019-05-09T22:03:54.876Z,12.60
2019-05-09T22:06:23.886Z,12.60
2019-05-09T22:08:53.064Z,12.60
2019-05-09T22:11:22.046Z,12.60
2019-05-09T22:13:51.094Z,12.70
2019-05-09T22:16:20.133Z,12.60
2019-05-09T22:18:49.058Z,12.60
2019-05-09T22:21:23.882Z,12.60
2019-05-09T22:23:56.315Z,12.60
2019-05-09T22:26:23.595Z,12.60
2019-05-09T22:28:52.543Z,12.60
2019-05-09T22:31:21.654Z,12.60
2019-05-09T22:33:50.614Z,12.60
2019-05-09T22:36:19.636Z,12.70
2019-05-09T22:38:48.590Z,12.70
2019-05-09T22:41:18.412Z,12.60
2019-05-09T22:43:47.396Z,12.40
2019-05-09T22:46:16.321Z,12.30
2019-05-09T22:48:45.275Z,12.20
2019-05-09T22:51:14.197Z,12.10
2019-05-09T22:53:43.159Z,12.00
2019-05-09T22:56:12.158Z,11.90
2019-05-09T22:58:41.283Z,11.90
2019-05-09T23:01:10.216Z,11.90
2019-05-09T23:03:39.159Z,11.90
2019-05-09T23:06:08.152Z,11.90
2019-05-09T23:08:37.137Z,11.90
2019-05-09T23:11:06.243Z,11.80
2019-05-09T23:13:36.870Z,11.80
2019-05-09T23:16:05.878Z,11.70
2019-05-09T23:18:34.833Z,11.70
2019-05-09T23:21:03.773Z,11.60
2019-05-09T23:23:36.830Z,11.60
2019-05-09T23:26:05.828Z,11.60
2019-05-09T23:28:34.860Z,11.50
2019-05-09T23:31:05.515Z,11.50
2019-05-09T23:33:36.125Z,11.60
2019-05-09T23:36:05.053Z,11.60
2019-05-09T23:38:34.041Z,11.50
2019-05-09T23:41:02.991Z,11.50
2019-05-09T23:43:31.908Z,11.50
2019-05-09T23:46:00.851Z,11.50
2019-05-09T23:48:29.768Z,11.50
2019-05-09T23:50:58.709Z,11.60
2019-05-09T23:53:31.752Z,11.60
2019-05-09T23:56:18.811Z,11.60
2019-05-09T23:59:05.594Z,11.60
